Time,TemperatureF,DewpointF,PressureIn,WindDirection,WindDirectionDegrees,WindSpeedMPH,WindSpeedGustMPH,Humidity,HourlyPrecipIn,Conditions,Clouds,dailyrainin,SoftwareType,DateUTC
2013-02-20 00:11:00,-999.0,-99.9,-100.00,WSW,258,21.0,-999.0,-999,-99.99,,,-99.99,,2013-02-20 08:11:00,
2013-02-20 00:22:00,-999.0,-99.9,-100.00,West,270,15.0,-999.0,-999,-99.99,,,-99.99,,2013-02-20 08:22:00,
2013-02-20 00:32:00,-999.0,-99.9,-100.00,West,270,15.0,-999.0,-999,-99.99,,,-99.99,,2013-02-20 08:32:00,
2013-02-20 00:42:00,-999.0,-99.9,-100.00,WNW,298,12.0,-999.0,-999,-99.99,,,-99.99,,2013-02-20 08:42:00,
2013-02-20 01:02:00,-999.0,-99.9,-100.00,SSW,213,13.0,-999.0,-999,-99.99,,,-99.99,,2013-02-20 09:02:00,
2013-02-20 01:11:00,-999.0,-99.9,-100.00,SSW,213,13.0,-999.0,-999,-99.99,,,-99.99,,2013-02-20 09:11:00,
2013-02-20 01:42:00,-999.0,-99.9,-100.00,SW,230,11.0,-999.0,-999,-99.99,,,-99.99,,2013-02-20 09:42:00,
2013-02-20 02:12:00,-999.0,-99.9,-100.00,WSW,258,11.0,-999.0,-999,-99.99,,,-99.99,,2013-02-20 10:12:00,
2013-02-20 02:22:00,-999.0,-99.9,-100.00,WSW,258,11.0,-999.0,-999,-99.99,,,-99.99,,2013-02-20 10:22:00,
2013-02-20 02:32:00,-999.0,-99.9,-100.00,SSW,213,10.0,-999.0,-999,-99.99,,,-99.99,,2013-02-20 10:32:00,
2013-02-20 03:02:00,-999.0,-99.9,-100.00,SW,219,14.0,-999.0,-999,-99.99,,,-99.99,,2013-02-20 11:02:00,
2013-02-20 03:11:00,-999.0,-99.9,-100.00,SSW,213,17.0,-999.0,-999,-99.99,,,-99.99,,2013-02-20 11:11:00,
2013-02-20 03:22:00,-999.0,-99.9,-100.00,SSW,202,17.0,-999.0,-999,-99.99,,,-99.99,,2013-02-20 11:22:00,
2013-02-20 03:42:00,-999.0,-99.9,-100.00,WNW,286,15.0,-999.0,-999,-99.99,,,-99.99,,2013-02-20 11:42:00,
2013-02-20 03:52:00,-999.0,-99.9,-100.00,West,270,14.0,-999.0,-999,-99.99,,,-99.99,,2013-02-20 11:52:00,
2013-02-20 04:02:00,-999.0,-99.9,-100.00,West,270,14.0,-999.0,-999,-99.99,,,-99.99,,2013-02-20 12:02:00,
2013-02-20 04:12:00,-999.0,-99.9,-100.00,WNW,286,14.0,-999.0,-999,-99.99,,,-99.99,,2013-02-20 12:12:00,
2013-02-20 04:22:00,-999.0,-99.9,-100.00,WNW,286,14.0,-999.0,-999,-99.99,,,-99.99,,2013-02-20 12:22:00,
2013-02-20 04:32:00,-999.0,-99.9,-100.00,West,275,11.0,-999.0,-999,-99.99,,,-99.99,,2013-02-20 12:32:00,
2013-02-20 04:42:00,-999.0,-99.9,-100.00,West,275,11.0,-999.0,-999,-99.99,,,-99.99,,2013-02-20 12:42:00,
2013-02-20 04:53:00,-999.0,-99.9,-100.00,West,275,11.0,-999.0,-999,-99.99,,,-99.99,,2013-02-20 12:53:00,
2013-02-20 05:02:00,-999.0,-99.9,-100.00,West,275,11.0,-999.0,-999,-99.99,,,-99.99,,2013-02-20 13:02:00,
2013-02-20 05:12:00,-999.0,-99.9,-100.00,WNW,303,7.0,-999.0,-999,-99.99,,,-99.99,,2013-02-20 13:12:00,
2013-02-20 06:11:00,-999.0,-99.9,-100.00,North,354,3.0,-999.0,-999,-99.99,,,-99.99,,2013-02-20 14:11:00,
2013-02-20 06:22:00,-999.0,-99.9,-100.00,North,354,9.0,-999.0,-999,-99.99,,,-99.99,,2013-02-20 14:22:00,
2013-02-20 06:32:00,-999.0,-99.9,-100.00,North,354,12.0,-999.0,-999,-99.99,,,-99.99,,2013-02-20 14:32:00,
2013-02-20 06:42:00,-999.0,-99.9,-100.00,North,354,12.0,-999.0,-999,-99.99,,,-99.99,,2013-02-20 14:42:00,
2013-02-20 07:42:00,-999.0,-99.9,-100.00,NNE,28,6.0,-999.0,-999,-99.99,,,-99.99,,2013-02-20 15:42:00,
2013-02-20 07:52:00,-999.0,-99.9,-100.00,NNE,28,6.0,-999.0,-999,-99.99,,,-99.99,,2013-02-20 15:52:00,
2013-02-20 08:12:00,-999.0,-99.9,-100.00,WNW,298,4.0,-999.0,-999,-99.99,,,-99.99,,2013-02-20 16:12:00,
2013-02-20 08:22:00,-999.0,-99.9,-100.00,WNW,298,4.0,-999.0,-999,-99.99,,,-99.99,,2013-02-20 16:22:00,
2013-02-20 08:32:00,-999.0,-99.9,-100.00,WNW,298,4.0,-999.0,-999,-99.99,,,-99.99,,2013-02-20 16:32:00,
2013-02-20 08:42:00,-999.0,-99.9,-100.00,WNW,298,4.0,-999.0,-999,-99.99,,,-99.99,,2013-02-20 16:42:00,
2013-02-20 08:52:00,-999.0,-99.9,-100.00,WNW,298,4.0,-999.0,-999,-99.99,,,-99.99,,2013-02-20 16:52:00,
2013-02-20 09:01:00,33.0,28.0,-100.00,North,-999,-999.0,-999.0,82,-99.99,,,-99.99,,2013-02-20 17:01:00,
2013-02-20 09:11:00,33.0,28.0,-100.00,North,-999,-999.0,-999.0,82,-99.99,,,-99.99,,2013-02-20 17:11:00,
2013-02-20 09:42:00,-999.0,-99.9,-100.00,NNW,343,3.0,-999.0,-999,-99.99,,,-99.99,,2013-02-20 17:42:00,
2013-02-20 09:52:00,-999.0,-99.9,-100.00,NNW,343,3.0,-999.0,-999,-99.99,,,-99.99,,2013-02-20 17:52:00,
2013-02-20 10:11:00,-999.0,-99.9,-100.00,NW,315,5.0,-999.0,-999,-99.99,,,-99.99,,2013-02-20 18:11:00,
2013-02-20 11:21:00,39.0,28.0,-100.00,North,-999,-999.0,-999.0,64,-99.99,,,-99.99,,2013-02-20 19:21:00,
2013-02-20 11:32:00,-999.0,-99.9,-100.00,SSW,213,4.0,-999.0,-999,-99.99,,,-99.99,,2013-02-20 19:32:00,
2013-02-20 11:42:00,-999.0,-99.9,-100.00,SSW,213,4.0,-999.0,-999,-99.99,,,-99.99,,2013-02-20 19:42:00,
2013-02-20 11:52:00,36.0,-99.9,-100.00,North,-999,-999.0,-999.0,-999,-99.99,,,-99.99,,2013-02-20 19:52:00,
2013-02-20 12:21:00,-999.0,-99.9,-100.00,NW,320,6.0,-999.0,-999,-99.99,,,-99.99,,2013-02-20 20:21:00,
2013-02-20 12:31:00,43.0,26.0,-100.00,North,-999,-999.0,-999.0,50,-99.99,,,-99.99,,2013-02-20 20:31:00,
2013-02-20 12:41:00,43.0,26.0,-100.00,North,-999,-999.0,-999.0,50,-99.99,,,-99.99,,2013-02-20 20:41:00,
2013-02-20 12:52:00,-999.0,-99.9,-100.00,WSW,253,5.0,-999.0,-999,-99.99,,,-99.99,,2013-02-20 20:52:00,
2013-02-20 13:02:00,-999.0,-99.9,-100.00,WSW,253,5.0,-999.0,-999,-99.99,,,-99.99,,2013-02-20 21:02:00,
2013-02-20 13:11:00,-999.0,-99.9,-100.00,WSW,253,5.0,-999.0,-999,-99.99,,,-99.99,,2013-02-20 21:11:00,
2013-02-20 13:21:00,-999.0,-99.9,-100.00,SW,225,5.0,-999.0,-999,-99.99,,,-99.99,,2013-02-20 21:21:00,
2013-02-20 13:32:00,-999.0,-99.9,-100.00,SW,225,5.0,-999.0,-999,-99.99,,,-99.99,,2013-02-20 21:32:00,
2013-02-20 13:42:00,-999.0,-99.9,-100.00,SW,225,5.0,-999.0,-999,-99.99,,,-99.99,,2013-02-20 21:42:00,
2013-02-20 13:52:00,-999.0,-99.9,-100.00,SW,225,5.0,-999.0,-999,-99.99,,,-99.99,,2013-02-20 21:52:00,
2013-02-20 14:02:00,-999.0,-99.9,-100.00,South,191,4.0,-999.0,-999,-99.99,,,-99.99,,2013-02-20 22:02:00,
2013-02-20 14:11:00,-999.0,-99.9,-100.00,South,191,4.0,-999.0,-999,-99.99,,,-99.99,,2013-02-20 22:11:00,
2013-02-20 14:21:00,-999.0,-99.9,-100.00,South,191,4.0,-999.0,-999,-99.99,,,-99.99,,2013-02-20 22:21:00,
2013-02-20 14:43:00,-999.0,-99.9,-100.00,WNW,298,3.0,-999.0,-999,-99.99,,,-99.99,,2013-02-20 22:43:00,
2013-02-20 14:52:00,-999.0,-99.9,-100.00,WNW,298,3.0,-999.0,-999,-99.99,,,-99.99,,2013-02-20 22:52:00,
2013-02-20 15:01:00,-999.0,-99.9,-100.00,WNW,298,3.0,-999.0,-999,-99.99,,,-99.99,,2013-02-20 23:01:00,
2013-02-20 15:12:00,-999.0,-99.9,-100.00,WNW,298,3.0,-999.0,-999,-99.99,,,-99.99,,2013-02-20 23:12:00,
2013-02-20 15:43:00,-999.0,-99.9,-100.00,ESE,118,3.0,-999.0,-999,-99.99,,,-99.99,,2013-02-20 23:43:00,
2013-02-20 15:53:00,-999.0,-99.9,-100.00,ESE,118,3.0,-999.0,-999,-99.99,,,-99.99,,2013-02-20 23:53:00,
2013-02-20 16:02:00,43.0,22.0,-100.00,North,-999,-999.0,-999.0,43,-99.99,,,-99.99,,2013-02-21 00:02:00,
2013-02-20 16:11:00,43.0,22.0,-100.00,North,-999,-999.0,-999.0,43,-99.99,,,-99.99,,2013-02-21 00:11:00,
2013-02-20 16:21:00,46.0,23.0,-100.00,North,-999,-999.0,-999.0,39,-99.99,,,-99.99,,2013-02-21 00:21:00,
2013-02-20 17:01:00,43.0,21.0,-100.00,North,-999,-999.0,-999.0,41,-99.99,,,-99.99,,2013-02-21 01:01:00,
2013-02-20 17:12:00,-999.0,-99.9,-100.00,NW,309,3.0,-999.0,-999,-99.99,,,-99.99,,2013-02-21 01:12:00,
2013-02-20 17:22:00,-999.0,-99.9,-100.00,NW,309,3.0,-999.0,-999,-99.99,,,-99.99,,2013-02-21 01:22:00,
2013-02-20 18:32:00,-999.0,-99.9,-100.00,NW,326,4.0,-999.0,-999,-99.99,,,-99.99,,2013-02-21 02:32:00,
2013-02-20 18:42:00,-999.0,-99.9,-100.00,NW,326,4.0,-999.0,-999,-99.99,,,-99.99,,2013-02-21 02:42:00,
2013-02-20 18:52:00,-999.0,-99.9,-100.00,NW,326,4.0,-999.0,-999,-99.99,,,-99.99,,2013-02-21 02:52:00,
2013-02-20 19:02:00,40.0,-99.9,-100.00,North,-999,-999.0,-999.0,-999,-99.99,,,-99.99,,2013-02-21 03:02:00,
2013-02-20 19:12:00,40.0,-99.9,-100.00,North,-999,-999.0,-999.0,-999,-99.99,,,-99.99,,2013-02-21 03:12:00,
2013-02-20 19:22:00,40.0,-99.9,-100.00,North,-999,-999.0,-999.0,-999,-99.99,,,-99.99,,2013-02-21 03:22:00,
2013-02-20 19:32:00,-999.0,-99.9,-100.00,NW,320,6.0,-999.0,-999,-99.99,,,-99.99,,2013-02-21 03:32:00,
2013-02-20 19:42:00,-999.0,-99.9,-100.00,NW,320,6.0,-999.0,-999,-99.99,,,-99.99,,2013-02-21 03:42:00,
2013-02-20 20:42:00,-999.0,-99.9,-100.00,NNW,337,2.0,-999.0,-999,-99.99,,,-99.99,,2013-02-21 04:42:00,
2013-02-20 21:02:00,38.0,21.0,-100.00,North,-999,-999.0,-999.0,50,-99.99,,,0.00,,2013-02-21 05:02:00,
2013-02-20 21:12:00,-999.0,-99.9,-100.00,NNW,348,6.0,-999.0,-999,-99.99,,,-99.99,,2013-02-21 05:12:00,
2013-02-20 21:38:00,-999.0,-99.9,-100.00,NW,320,11.0,-999.0,-999,-99.99,,,-99.99,,2013-02-21 05:38:00,
2013-02-20 21:47:00,-999.0,-99.9,-100.00,NW,320,11.0,-999.0,-999,-99.99,,,-99.99,,2013-02-21 05:47:00,
2013-02-20 22:02:00,-999.0,-99.9,-100.00,NNW,343,9.0,-999.0,-999,-99.99,,,-99.99,,2013-02-21 06:02:00,
2013-02-20 22:11:00,-999.0,-99.9,-100.00,NNW,343,9.0,-999.0,-999,-99.99,,,-99.99,,2013-02-21 06:11:00,
2013-02-20 22:21:00,-999.0,-99.9,-100.00,NNW,343,9.0,-999.0,-999,-99.99,,,-99.99,,2013-02-21 06:21:00,
2013-02-20 23:42:00,-999.0,-99.9,-100.00,West,281,3.0,-999.0,-999,-99.99,,,-99.99,,2013-02-21 07:42:00,